Airfield :
LOGIN :

Register | Disclaimer

   EN    FR    IT 

 










Legend :    VFR   Marginal VFR   IFR   Intensive IFR   Very Intensive IFR
Visi :
Ceiling :
>= 8 km
>= 3000ft
5 to 8 km
1000 to 3000 ft
1500m to 5 km
500 to 1000 ft
800 to 1500m
200 to 500 ft
< 800m
< 200 ft
Symbols :   Thunderstorms  Fog  Heavy snow  Heavy precipitations  Wind > 20 kt
SIGMETs :     Misc.  Thunderstorms  Icing  Turbulence  Mountain Waves  Volcanic Ashes







- Airport Elevation : 1363 ft


ETIC - Grafenwohr Army Air Field

CURRENT METAR :
  • 251856Z AUTO 29008KT 9999 CLR 02/02 A3011 RMK AO2 SLP216 T00210020 $

EXPIRED METARs :
  • 251756Z AUTO 28006KT 9999 FEW020 SCT026 BKN034 03/03 A3009 RMK AO2 DZE02 SLP209 P0000 60004 T00260025 10067 20011 52020 $
  • 251656Z AUTO 27003KT 9999 -DZ SCT015 BKN023 BKN029 BKN045 OVC060 02/02 A3006 RMK AO2 RAE13SNB13E25RAB25E28DZB28E30DZB51 CIG 016V023 SLP199 P0002 T00210021 $

TAF AMD TAF ETIC
Valid from the 25 at 15:00 until the 26 at 18:00 UTC


251515Z 2515/2618 28010KT 9999 BKN030 BKN050 QNH2999INS
TEMPO 2515/2517 28018G30KT 8000 -TSRA BKN020CB
TEMPO 2517/2519 29009KT 8000 -SHRA BKN025
BECMG 2518/2519 29009KT 9999 BKN020 OVC050 QNH3008INS
BECMG 2603/2604 VRB06KT 9999 BKN010 OVC015 QNH3025INS
BECMG 2607/2608 26009KT 9999 SCT015 BKN025 QNH3033INS TX03/2515Z TN01/2601Z
No reported NOTAMs for that airfield.



MET'MAP, your aeronautical weather chart ! - Copyright ORBIFLY December 2007 - Disclaimer

ORBIFLY MET'MAP TEAM :

Programming & Development : Alexandra Zaïnal
Concept & Development : Baudouin d'Aumeries
Co-Development & Prog : Marc-Olivier Méhu
Technical & hardware support : Manuel Goepfert

Contact : metmap@orbifly.com




SOURCES & CREDITS :

   NOAA